Etusivu
METAR-TAF:

METAR-TAF

Lentoasemat :

Koné, Uusi-Kaledonia

Leveyspiiri: 21-03-12S, Pituuspiiri: 164-50-18E, korkeus merenpinnasta: 7 m

METAR: puuttuu

Aika: 05:44 (18:44 UTC)

Sääennuste

Tämä raportti tehtiin 1 tunti ja 44 minuuttia sitten, kello 17.00 UTC
Ennuste voimassa 01. päivästä klo 18 UTC - 02. päivään klo 18 UTC
Tuuli 2 kn eri suunnista
Näkyvyys 10 km tai enemmän
Muutamia pilviä 5000 ft:n korkeudessa
Tulossa
02. päivästä klo 00 UTC - 02. päivään klo 02 UTC
Tuuli 10 kn etelästä/lounaasta
Todennäköisyys 30% :
Ajoittain
02. päivästä klo 03 UTC - 02. päivään klo 06 UTC
Muutamia pilviä 2500 ft:n korkeudessa, Kasvava cumulus-pilvi.
Tulossa
02. päivästä klo 06 UTC - 02. päivään klo 08 UTC
Tuuli 5 kn idästä/koillisesta

TAF: NWWD 011700Z 0118/0218 VRB02KT 9999 FEW050 BECMG 0200/0202 21010KT PROB30 TEMPO 0203/0206 FEW025TCU BECMG 0206/0208 07005KT

Säähavainnot ja -ennusteet yli 4000 lentoasemalta (METAR- ja TAF-raportit).

Käytössä olevat sääasemat on merkitty karttaan keltaisilla ja punaisilla pisteillä.

Aseta hiiri pisteen päälle nähdäksesi sääaseman nimen.

Klikkaa sitten nähdäksesi säähavainnot ja -ennusteet.

Kartan vaihtaminen: klikkaa mustalla rastilla varustettuja vihreitä pisteitä, niin voit zoomata sisään; viivalla varustettua vihreää pistettä, niin voit zoomata ulos tai vihreitä nuolia, niin pääset viereisille kartoille.


METAR-TAF: